createdAt,value
2017-04-19T00:06:32.985Z,0
2017-04-19T00:16:44.955Z,0
2017-04-19T00:26:56.925Z,0
2017-04-19T00:37:08.913Z,0
2017-04-19T00:47:20.919Z,0
2017-04-19T00:57:32.996Z,0
2017-04-19T01:07:45.080Z,0
2017-04-19T01:17:57.206Z,0
2017-04-19T01:28:09.368Z,0
2017-04-19T01:38:21.572Z,0
2017-04-19T01:48:33.818Z,0
2017-04-19T01:58:46.086Z,0
2017-04-19T02:08:58.386Z,0
2017-04-19T02:19:10.697Z,0
2017-04-19T02:29:23.018Z,0
2017-04-19T02:39:35.314Z,0
2017-04-19T02:49:47.702Z,0
2017-04-19T03:00:00.027Z,0
2017-04-19T03:10:12.415Z,0
2017-04-19T03:20:24.863Z,0
2017-04-19T03:30:37.196Z,0
2017-04-19T03:40:49.760Z,0
2017-04-19T03:51:02.162Z,0
2017-04-19T04:01:14.666Z,0
2017-04-19T04:11:27.138Z,5
2017-04-19T04:21:39.601Z,15
2017-04-19T04:31:52.063Z,35
2017-04-19T04:42:04.491Z,65
2017-04-19T04:52:16.775Z,95
2017-04-19T05:02:28.918Z,125
2017-04-19T05:12:40.897Z,155
2017-04-19T05:22:52.812Z,185
2017-04-19T05:33:04.582Z,215
2017-04-19T05:43:16.182Z,250
2017-04-19T05:53:27.567Z,390
2017-04-19T06:03:38.763Z,475
2017-04-19T06:13:49.860Z,605
2017-04-19T06:24:00.836Z,755
2017-04-19T06:34:11.711Z,880
2017-04-19T06:44:22.495Z,945
2017-04-19T06:54:33.155Z,1175
2017-04-19T07:04:43.745Z,1390
2017-04-19T07:14:54.279Z,1070
2017-04-19T07:25:04.714Z,1290
2017-04-19T07:35:15.033Z,1710
2017-04-19T07:45:25.291Z,960
2017-04-19T07:55:35.661Z,610
2017-04-19T08:05:46.271Z,790
2017-04-19T08:15:56.910Z,595
2017-04-19T08:26:07.606Z,2210
2017-04-19T08:36:18.056Z,2630
2017-04-19T08:46:28.215Z,2505
2017-04-19T08:56:38.104Z,835
2017-04-19T09:06:47.981Z,2955
2017-04-19T09:16:57.873Z,3305
2017-04-19T09:27:07.498Z,3275
2017-04-19T09:37:17.174Z,1010
2017-04-19T09:47:27.124Z,3500
2017-04-19T09:57:37.258Z,890
2017-04-19T10:07:47.506Z,1285
2017-04-19T10:17:57.522Z,1715
2017-04-19T10:28:07.478Z,1020
2017-04-19T10:38:17.515Z,3745
2017-04-19T10:48:27.781Z,1040
2017-04-19T10:58:38.040Z,1255
2017-04-19T11:08:48.250Z,2360
2017-04-19T11:18:58.405Z,3580
2017-04-19T11:29:08.129Z,1005
2017-04-19T11:39:17.680Z,630
2017-04-19T11:49:27.700Z,605
2017-04-19T11:59:37.940Z,840
2017-04-19T12:09:48.152Z,1495
2017-04-19T12:19:58.175Z,780
2017-04-19T12:30:08.166Z,1050
2017-04-19T12:40:18.236Z,860
2017-04-19T12:50:28.395Z,3070
2017-04-19T13:00:38.392Z,1050
2017-04-19T13:10:48.303Z,750
2017-04-19T13:20:58.305Z,1575
2017-04-19T13:31:07.948Z,695
2017-04-19T13:41:17.759Z,615
2017-04-19T13:51:27.863Z,605
2017-04-19T14:01:38.091Z,515
2017-04-19T14:11:48.427Z,2360
2017-04-19T14:21:58.137Z,2670
2017-04-19T14:32:07.313Z,465
2017-04-19T14:42:16.900Z,550
2017-04-19T14:52:26.914Z,585
2017-04-19T15:02:37.113Z,725
2017-04-19T15:12:47.079Z,935
2017-04-19T15:22:56.771Z,420
2017-04-19T15:33:06.794Z,390
2017-04-19T15:43:17.100Z,450
2017-04-19T15:53:27.539Z,690
2017-04-19T16:03:37.694Z,435
2017-04-19T16:13:47.891Z,230
2017-04-19T16:23:58.350Z,235
2017-04-19T16:34:08.845Z,280
2017-04-19T16:44:19.431Z,270
2017-04-19T16:54:30.007Z,250
2017-04-19T17:04:40.687Z,180
2017-04-19T17:14:51.333Z,185
2017-04-19T17:25:02.052Z,175
2017-04-19T17:35:12.861Z,155
2017-04-19T17:45:23.763Z,150
2017-04-19T17:55:34.622Z,105
2017-04-19T18:05:45.494Z,65
2017-04-19T18:15:56.488Z,40
2017-04-19T18:26:07.632Z,20
2017-04-19T18:36:18.758Z,5
2017-04-19T18:46:29.970Z,0
2017-04-19T18:56:41.259Z,0
2017-04-19T19:06:52.569Z,0
2017-04-19T19:17:03.925Z,0
2017-04-19T19:27:15.367Z,0
2017-04-19T19:37:26.843Z,0
2017-04-19T19:47:38.262Z,0
2017-04-19T19:57:49.789Z,0
2017-04-19T20:08:01.319Z,0
2017-04-19T20:18:12.899Z,0
2017-04-19T20:28:24.512Z,0
2017-04-19T20:38:36.180Z,0
2017-04-19T20:48:47.933Z,0
2017-04-19T20:58:59.629Z,0
2017-04-19T21:09:11.278Z,0
2017-04-19T21:19:22.863Z,0
2017-04-19T21:29:34.381Z,0
2017-04-19T21:39:45.903Z,0
2017-04-19T21:49:57.461Z,0
2017-04-19T22:00:08.997Z,0
2017-04-19T22:10:20.591Z,0
2017-04-19T22:20:32.220Z,0
2017-04-19T22:30:43.893Z,0
2017-04-19T22:40:55.560Z,0
2017-04-19T22:51:07.339Z,0
2017-04-19T23:01:19.127Z,0
2017-04-19T23:11:30.966Z,0
2017-04-19T23:21:42.899Z,0
2017-04-19T23:31:54.909Z,0
2017-04-19T23:42:06.947Z,0
2017-04-19T23:52:18.972Z,0
